Terminal Aerodrome Forecast
Issued by NWS

Current Version | Previous Version | Text Only | Print | Product List | Glossary On
Versions: 1 2 3 4 5 6 7 8 9 10 11 12 13 14 15 16 17 18 19 20 21 22 23 24 25 26 27 28 29 30 31 32
000
FTUS41 KOKX 251755 CCA
TAFHPN
TAF COR
KHPN 251755Z 2518/2618 08015G22KT 1SM -RA BR OVC003
      TEMPO 2518/2521 1/2SM -DZ FG OVC003
     FM252100 07010KT 1/2SM -DZ FG OVC003
     FM260300 VRB04KT 1SM SHRA BR OVC004 PROB30 2603/2609 2SM -TSRA
      SCT006 OVC015CB
     FM261000 33006KT 5SM -SHRA SCT004 BKN007
     FM261400 29010KT P6SM SCT015 BKN025
     FM261600 29014G24KT P6SM SCT025 BKN035
      AMD NOT SKED=

USA.gov is the U.S. government's official web portal to all federal, state and local government web resources and services.